<?xml version='1.0' encoding='UTF-8'?>
<gpx version="1.1" creator="https://www.komoot.de" xmlns="http://www.topografix.com/GPX/1/1" xmlns:xsi="http://www.w3.org/2001/XMLSchema-instance" xsi:schemaLocation="http://www.topografix.com/GPX/1/1 http://www.topografix.com/GPX/1/1/gpx.xsd">
  <metadata>
    <name>PW - Warngau 21 km Warngau-Watschler</name>
    <author>
      <link href="https://www.komoot.de">
        <text>komoot</text>
        <type>text/html</type>
      </link>
    </author>
  </metadata>
  <trk>
    <name>PW - Warngau 21 km Warngau-Watschler</name>
    <trkseg>
      <trkpt lat="47.831984" lon="11.710604">
        <ele>716.922737</ele>
        <time>2018-03-22T10:59:28.071Z</time>
      </trkpt>
      <trkpt lat="47.831944" lon="11.711384">
        <ele>716.922737</ele>
        <time>2018-03-22T11:00:22.454Z</time>
      </trkpt>
      <trkpt lat="47.831413" lon="11.711251">
        <ele>717.120548</ele>
        <time>2018-03-22T11:01:18.861Z</time>
      </trkpt>
      <trkpt lat="47.831066" lon="11.711127">
        <ele>717.550233</ele>
        <time>2018-03-22T11:01:56.249Z</time>
      </trkpt>
      <trkpt lat="47.830066" lon="11.710752">
        <ele>718.791928</ele>
        <time>2018-03-22T11:03:44.205Z</time>
      </trkpt>
      <trkpt lat="47.829387" lon="11.710419">
        <ele>719.436272</ele>
        <time>2018-03-22T11:04:58.004Z</time>
      </trkpt>
      <trkpt lat="47.829346" lon="11.710398">
        <ele>719.468451</ele>
        <time>2018-03-22T11:05:02.537Z</time>
      </trkpt>
      <trkpt lat="47.828823" lon="11.710228">
        <ele>719.865753</ele>
        <time>2018-03-22T11:05:57.628Z</time>
      </trkpt>
      <trkpt lat="47.827230" lon="11.710239">
        <ele>720.791074</ele>
        <time>2018-03-22T11:08:40.357Z</time>
      </trkpt>
      <trkpt lat="47.827243" lon="11.709214">
        <ele>721.091715</ele>
        <time>2018-03-22T11:09:50.472Z</time>
      </trkpt>
      <trkpt lat="47.827261" lon="11.708170">
        <ele>721.149804</ele>
        <time>2018-03-22T11:11:00.685Z</time>
      </trkpt>
      <trkpt lat="47.827258" lon="11.707493">
        <ele>721.087440</ele>
        <time>2018-03-22T11:11:46.483Z</time>
      </trkpt>
      <trkpt lat="47.827152" lon="11.707096">
        <ele>721.048083</ele>
        <time>2018-03-22T11:12:15.356Z</time>
      </trkpt>
      <trkpt lat="47.827029" lon="11.706613">
        <ele>721.000497</ele>
        <time>2018-03-22T11:12:50.457Z</time>
      </trkpt>
      <trkpt lat="47.826873" lon="11.705473">
        <ele>721.459388</ele>
        <time>2018-03-22T11:14:08.925Z</time>
      </trkpt>
      <trkpt lat="47.826269" lon="11.704876">
        <ele>722.175729</ele>
        <time>2018-03-22T11:15:23.064Z</time>
      </trkpt>
      <trkpt lat="47.825694" lon="11.703881">
        <ele>724.117854</ele>
        <time>2018-03-22T11:16:56.942Z</time>
      </trkpt>
      <trkpt lat="47.825115" lon="11.702878">
        <ele>728.057687</ele>
        <time>2018-03-22T11:18:39.968Z</time>
      </trkpt>
      <trkpt lat="47.824940" lon="11.702206">
        <ele>730.204523</ele>
        <time>2018-03-22T11:19:38.508Z</time>
      </trkpt>
      <trkpt lat="47.824511" lon="11.701138">
        <ele>734.053579</ele>
        <time>2018-03-22T11:21:19.356Z</time>
      </trkpt>
      <trkpt lat="47.824195" lon="11.700473">
        <ele>736.588256</ele>
        <time>2018-03-22T11:22:23.662Z</time>
      </trkpt>
      <trkpt lat="47.823814" lon="11.699880">
        <ele>739.065795</ele>
        <time>2018-03-22T11:23:25.182Z</time>
      </trkpt>
      <trkpt lat="47.823400" lon="11.699353">
        <ele>739.414761</ele>
        <time>2018-03-22T11:24:23.007Z</time>
      </trkpt>
      <trkpt lat="47.823286" lon="11.699164">
        <ele>739.524067</ele>
        <time>2018-03-22T11:24:40.397Z</time>
      </trkpt>
      <trkpt lat="47.822241" lon="11.697435">
        <ele>740.210256</ele>
        <time>2018-03-22T11:27:17.275Z</time>
      </trkpt>
      <trkpt lat="47.822076" lon="11.697091">
        <ele>740.212623</ele>
        <time>2018-03-22T11:27:45.781Z</time>
      </trkpt>
      <trkpt lat="47.821978" lon="11.696826">
        <ele>740.214317</ele>
        <time>2018-03-22T11:28:06.349Z</time>
      </trkpt>
      <trkpt lat="47.821812" lon="11.696705">
        <ele>740.215858</ele>
        <time>2018-03-22T11:28:24.913Z</time>
      </trkpt>
      <trkpt lat="47.821601" lon="11.696725">
        <ele>740.217621</ele>
        <time>2018-03-22T11:28:46.555Z</time>
      </trkpt>
      <trkpt lat="47.821509" lon="11.696795">
        <ele>740.218482</ele>
        <time>2018-03-22T11:28:56.893Z</time>
      </trkpt>
      <trkpt lat="47.821054" lon="11.697169">
        <ele>740.029177</ele>
        <time>2018-03-22T11:29:49.005Z</time>
      </trkpt>
      <trkpt lat="47.820851" lon="11.697370">
        <ele>739.801107</ele>
        <time>2018-03-22T11:30:13.456Z</time>
      </trkpt>
      <trkpt lat="47.820610" lon="11.697549">
        <ele>739.549143</ele>
        <time>2018-03-22T11:30:40.980Z</time>
      </trkpt>
      <trkpt lat="47.820332" lon="11.697546">
        <ele>739.289040</ele>
        <time>2018-03-22T11:31:09.596Z</time>
      </trkpt>
      <trkpt lat="47.819820" lon="11.697516">
        <ele>738.809644</ele>
        <time>2018-03-22T11:32:02.472Z</time>
      </trkpt>
      <trkpt lat="47.819609" lon="11.697596">
        <ele>738.605935</ele>
        <time>2018-03-22T11:32:24.827Z</time>
      </trkpt>
      <trkpt lat="47.819142" lon="11.698677">
        <ele>738.805637</ele>
        <time>2018-03-22T11:33:53.208Z</time>
      </trkpt>
      <trkpt lat="47.819018" lon="11.698812">
        <ele>738.857563</ele>
        <time>2018-03-22T11:34:08.717Z</time>
      </trkpt>
      <trkpt lat="47.818184" lon="11.698840">
        <ele>739.139570</ele>
        <time>2018-03-22T11:35:36.406Z</time>
      </trkpt>
      <trkpt lat="47.817614" lon="11.699028">
        <ele>741.142211</ele>
        <time>2018-03-22T11:36:41.171Z</time>
      </trkpt>
      <trkpt lat="47.816749" lon="11.699103">
        <ele>744.209531</ele>
        <time>2018-03-22T11:38:20.085Z</time>
      </trkpt>
      <trkpt lat="47.816588" lon="11.698334">
        <ele>746.110288</ele>
        <time>2018-03-22T11:39:22.615Z</time>
      </trkpt>
      <trkpt lat="47.815828" lon="11.696012">
        <ele>751.962168</ele>
        <time>2018-03-22T11:42:37.036Z</time>
      </trkpt>
      <trkpt lat="47.815278" lon="11.694667">
        <ele>754.183815</ele>
        <time>2018-03-22T11:44:31.146Z</time>
      </trkpt>
      <trkpt lat="47.814393" lon="11.693316">
        <ele>756.069993</ele>
        <time>2018-03-22T11:46:44.137Z</time>
      </trkpt>
      <trkpt lat="47.813755" lon="11.693587">
        <ele>756.652192</ele>
        <time>2018-03-22T11:47:51.498Z</time>
      </trkpt>
      <trkpt lat="47.813012" lon="11.693765">
        <ele>757.508779</ele>
        <time>2018-03-22T11:49:08.630Z</time>
      </trkpt>
      <trkpt lat="47.812370" lon="11.693717">
        <ele>758.573164</ele>
        <time>2018-03-22T11:50:15.396Z</time>
      </trkpt>
      <trkpt lat="47.810941" lon="11.693778">
        <ele>761.474233</ele>
        <time>2018-03-22T11:52:50.622Z</time>
      </trkpt>
      <trkpt lat="47.810537" lon="11.693912">
        <ele>762.579844</ele>
        <time>2018-03-22T11:53:36.419Z</time>
      </trkpt>
      <trkpt lat="47.810131" lon="11.694142">
        <ele>763.740186</ele>
        <time>2018-03-22T11:54:24.356Z</time>
      </trkpt>
      <trkpt lat="47.810124" lon="11.694137">
        <ele>763.760925</ele>
        <time>2018-03-22T11:54:25.438Z</time>
      </trkpt>
      <trkpt lat="47.809749" lon="11.693872">
        <ele>764.869708</ele>
        <time>2018-03-22T11:55:10.784Z</time>
      </trkpt>
      <trkpt lat="47.808643" lon="11.692666">
        <ele>767.612399</ele>
        <time>2018-03-22T11:57:38.863Z</time>
      </trkpt>
      <trkpt lat="47.808358" lon="11.691637">
        <ele>768.622751</ele>
        <time>2018-03-22T11:58:56.855Z</time>
      </trkpt>
      <trkpt lat="47.807676" lon="11.690806">
        <ele>769.042471</ele>
        <time>2018-03-22T12:00:27.606Z</time>
      </trkpt>
      <trkpt lat="47.807472" lon="11.690447">
        <ele>769.192894</ele>
        <time>2018-03-22T12:00:59.278Z</time>
      </trkpt>
      <trkpt lat="47.807150" lon="11.689054">
        <ele>768.884852</ele>
        <time>2018-03-22T12:02:39.685Z</time>
      </trkpt>
      <trkpt lat="47.807158" lon="11.688618">
        <ele>768.701018</ele>
        <time>2018-03-22T12:03:09.480Z</time>
      </trkpt>
      <trkpt lat="47.807240" lon="11.688168">
        <ele>768.504494</ele>
        <time>2018-03-22T12:03:41.338Z</time>
      </trkpt>
      <trkpt lat="47.806004" lon="11.688663">
        <ele>768.016169</ele>
        <time>2018-03-22T12:05:51.063Z</time>
      </trkpt>
      <trkpt lat="47.805414" lon="11.688741">
        <ele>767.879556</ele>
        <time>2018-03-22T12:06:50.837Z</time>
      </trkpt>
      <trkpt lat="47.804955" lon="11.688885">
        <ele>767.761112</ele>
        <time>2018-03-22T12:07:38.016Z</time>
      </trkpt>
      <trkpt lat="47.804523" lon="11.688848">
        <ele>767.582238</ele>
        <time>2018-03-22T12:08:21.531Z</time>
      </trkpt>
      <trkpt lat="47.804063" lon="11.688681">
        <ele>767.386514</ele>
        <time>2018-03-22T12:09:09.379Z</time>
      </trkpt>
      <trkpt lat="47.803591" lon="11.688672">
        <ele>767.191385</ele>
        <time>2018-03-22T12:09:57.245Z</time>
      </trkpt>
      <trkpt lat="47.801699" lon="11.688991">
        <ele>766.575355</ele>
        <time>2018-03-22T12:13:09.663Z</time>
      </trkpt>
      <trkpt lat="47.801454" lon="11.688945">
        <ele>766.500711</ele>
        <time>2018-03-22T12:13:34.441Z</time>
      </trkpt>
      <trkpt lat="47.799273" lon="11.687391">
        <ele>767.426732</ele>
        <time>2018-03-22T12:17:41.714Z</time>
      </trkpt>
      <trkpt lat="47.798031" lon="11.686341">
        <ele>767.155277</ele>
        <time>2018-03-22T12:20:05.128Z</time>
      </trkpt>
      <trkpt lat="47.796987" lon="11.685245">
        <ele>765.464857</ele>
        <time>2018-03-22T12:22:16.887Z</time>
      </trkpt>
      <trkpt lat="47.796919" lon="11.684228">
        <ele>764.422696</ele>
        <time>2018-03-22T12:23:28.547Z</time>
      </trkpt>
      <trkpt lat="47.796417" lon="11.682397">
        <ele>762.223486</ele>
        <time>2018-03-22T12:25:46.058Z</time>
      </trkpt>
      <trkpt lat="47.796145" lon="11.682678">
        <ele>761.781947</ele>
        <time>2018-03-22T12:26:19.974Z</time>
      </trkpt>
      <trkpt lat="47.795919" lon="11.682793">
        <ele>761.483180</ele>
        <time>2018-03-22T12:26:44.423Z</time>
      </trkpt>
      <trkpt lat="47.795820" lon="11.682868">
        <ele>761.344225</ele>
        <time>2018-03-22T12:26:55.757Z</time>
      </trkpt>
      <trkpt lat="47.795366" lon="11.683108">
        <ele>760.741563</ele>
        <time>2018-03-22T12:27:45.113Z</time>
      </trkpt>
      <trkpt lat="47.795185" lon="11.683070">
        <ele>760.512907</ele>
        <time>2018-03-22T12:28:03.852Z</time>
      </trkpt>
      <trkpt lat="47.794574" lon="11.682557">
        <ele>759.605315</ele>
        <time>2018-03-22T12:29:16.077Z</time>
      </trkpt>
      <trkpt lat="47.794354" lon="11.682555">
        <ele>759.293482</ele>
        <time>2018-03-22T12:29:38.637Z</time>
      </trkpt>
      <trkpt lat="47.794205" lon="11.682301">
        <ele>758.972393</ele>
        <time>2018-03-22T12:30:01.912Z</time>
      </trkpt>
      <trkpt lat="47.794116" lon="11.682190">
        <ele>758.807819</ele>
        <time>2018-03-22T12:30:13.899Z</time>
      </trkpt>
      <trkpt lat="47.793704" lon="11.681750">
        <ele>758.089101</ele>
        <time>2018-03-22T12:31:06.045Z</time>
      </trkpt>
      <trkpt lat="47.792997" lon="11.681103">
        <ele>756.813301</ele>
        <time>2018-03-22T12:32:31.735Z</time>
      </trkpt>
      <trkpt lat="47.791693" lon="11.680333">
        <ele>754.329616</ele>
        <time>2018-03-22T12:34:57.434Z</time>
      </trkpt>
      <trkpt lat="47.791425" lon="11.680328">
        <ele>753.882965</ele>
        <time>2018-03-22T12:35:25.357Z</time>
      </trkpt>
      <trkpt lat="47.791477" lon="11.679603">
        <ele>753.104373</ele>
        <time>2018-03-22T12:36:16.232Z</time>
      </trkpt>
      <trkpt lat="47.791573" lon="11.678985">
        <ele>752.427030</ele>
        <time>2018-03-22T12:37:00.601Z</time>
      </trkpt>
      <trkpt lat="47.791531" lon="11.678863">
        <ele>752.280644</ele>
        <time>2018-03-22T12:37:10.452Z</time>
      </trkpt>
      <trkpt lat="47.791375" lon="11.678700">
        <ele>751.977693</ele>
        <time>2018-03-22T12:37:30.401Z</time>
      </trkpt>
      <trkpt lat="47.790835" lon="11.678236">
        <ele>751.563878</ele>
        <time>2018-03-22T12:38:33.854Z</time>
      </trkpt>
      <trkpt lat="47.790536" lon="11.677850">
        <ele>752.221694</ele>
        <time>2018-03-22T12:39:13.518Z</time>
      </trkpt>
      <trkpt lat="47.790243" lon="11.677303">
        <ele>753.002848</ele>
        <time>2018-03-22T12:40:02.248Z</time>
      </trkpt>
      <trkpt lat="47.790191" lon="11.677023">
        <ele>753.327227</ele>
        <time>2018-03-22T12:40:24.625Z</time>
      </trkpt>
      <trkpt lat="47.790194" lon="11.676224">
        <ele>754.219419</ele>
        <time>2018-03-22T12:41:24.278Z</time>
      </trkpt>
      <trkpt lat="47.790017" lon="11.675458">
        <ele>756.149115</ele>
        <time>2018-03-22T12:42:27.618Z</time>
      </trkpt>
      <trkpt lat="47.790074" lon="11.674826">
        <ele>757.704325</ele>
        <time>2018-03-22T12:43:18.285Z</time>
      </trkpt>
      <trkpt lat="47.790097" lon="11.673001">
        <ele>760.470705</ele>
        <time>2018-03-22T12:45:33.621Z</time>
      </trkpt>
      <trkpt lat="47.790346" lon="11.671526">
        <ele>759.612180</ele>
        <time>2018-03-22T12:47:18.323Z</time>
      </trkpt>
      <trkpt lat="47.790320" lon="11.671015">
        <ele>759.322894</ele>
        <time>2018-03-22T12:47:55.390Z</time>
      </trkpt>
      <trkpt lat="47.790263" lon="11.670608">
        <ele>758.512654</ele>
        <time>2018-03-22T12:48:25.832Z</time>
      </trkpt>
      <trkpt lat="47.790062" lon="11.670281">
        <ele>757.496563</ele>
        <time>2018-03-22T12:48:58.242Z</time>
      </trkpt>
      <trkpt lat="47.789518" lon="11.669632">
        <ele>755.117546</ele>
        <time>2018-03-22T12:50:13.604Z</time>
      </trkpt>
      <trkpt lat="47.789617" lon="11.668962">
        <ele>753.544793</ele>
        <time>2018-03-22T12:51:02.485Z</time>
      </trkpt>
      <trkpt lat="47.789588" lon="11.668404">
        <ele>752.868021</ele>
        <time>2018-03-22T12:51:41.796Z</time>
      </trkpt>
      <trkpt lat="47.789468" lon="11.667990">
        <ele>752.549034</ele>
        <time>2018-03-22T12:52:13.340Z</time>
      </trkpt>
      <trkpt lat="47.789482" lon="11.667671">
        <ele>752.322871</ele>
        <time>2018-03-22T12:52:35.317Z</time>
      </trkpt>
      <trkpt lat="47.789819" lon="11.666383">
        <ele>751.344994</ele>
        <time>2018-03-22T12:54:08.765Z</time>
      </trkpt>
      <trkpt lat="47.789992" lon="11.665434">
        <ele>750.616737</ele>
        <time>2018-03-22T12:55:15.371Z</time>
      </trkpt>
      <trkpt lat="47.790125" lon="11.665202">
        <ele>750.389161</ele>
        <time>2018-03-22T12:55:36.120Z</time>
      </trkpt>
      <trkpt lat="47.790908" lon="11.664593">
        <ele>749.407934</ele>
        <time>2018-03-22T12:57:07.268Z</time>
      </trkpt>
      <trkpt lat="47.791643" lon="11.664361">
        <ele>748.797306</ele>
        <time>2018-03-22T12:58:25.737Z</time>
      </trkpt>
      <trkpt lat="47.791803" lon="11.664222">
        <ele>748.659937</ele>
        <time>2018-03-22T12:58:45.046Z</time>
      </trkpt>
      <trkpt lat="47.791542" lon="11.663125">
        <ele>748.080199</ele>
        <time>2018-03-22T13:00:04.093Z</time>
      </trkpt>
      <trkpt lat="47.791549" lon="11.662766">
        <ele>747.957667</ele>
        <time>2018-03-22T13:00:28.951Z</time>
      </trkpt>
      <trkpt lat="47.791719" lon="11.661602">
        <ele>750.157408</ele>
        <time>2018-03-22T13:01:54.527Z</time>
      </trkpt>
      <trkpt lat="47.791792" lon="11.660359">
        <ele>752.461580</ele>
        <time>2018-03-22T13:03:29.691Z</time>
      </trkpt>
      <trkpt lat="47.791730" lon="11.660115">
        <ele>752.887374</ele>
        <time>2018-03-22T13:03:49.989Z</time>
      </trkpt>
      <trkpt lat="47.791404" lon="11.659636">
        <ele>753.327975</ele>
        <time>2018-03-22T13:04:42.305Z</time>
      </trkpt>
      <trkpt lat="47.791043" lon="11.658795">
        <ele>753.972886</ele>
        <time>2018-03-22T13:05:52.851Z</time>
      </trkpt>
      <trkpt lat="47.790754" lon="11.658180">
        <ele>754.457870</ele>
        <time>2018-03-22T13:06:43.967Z</time>
      </trkpt>
      <trkpt lat="47.790515" lon="11.657835">
        <ele>753.684688</ele>
        <time>2018-03-22T13:07:19.405Z</time>
      </trkpt>
      <trkpt lat="47.790288" lon="11.657455">
        <ele>752.130456</ele>
        <time>2018-03-22T13:07:56.360Z</time>
      </trkpt>
      <trkpt lat="47.790200" lon="11.657151">
        <ele>751.118675</ele>
        <time>2018-03-22T13:08:20.886Z</time>
      </trkpt>
      <trkpt lat="47.790108" lon="11.656487">
        <ele>749.046390</ele>
        <time>2018-03-22T13:09:11.100Z</time>
      </trkpt>
      <trkpt lat="47.789960" lon="11.656167">
        <ele>747.858924</ele>
        <time>2018-03-22T13:09:40.589Z</time>
      </trkpt>
      <trkpt lat="47.789819" lon="11.655869">
        <ele>746.744841</ele>
        <time>2018-03-22T13:10:08.298Z</time>
      </trkpt>
      <trkpt lat="47.789456" lon="11.654643">
        <ele>743.290088</ele>
        <time>2018-03-22T13:11:47.494Z</time>
      </trkpt>
      <trkpt lat="47.789096" lon="11.653651">
        <ele>740.431662</ele>
        <time>2018-03-22T13:13:08.419Z</time>
      </trkpt>
      <trkpt lat="47.788845" lon="11.652844">
        <ele>739.624339</ele>
        <time>2018-03-22T13:14:09.780Z</time>
      </trkpt>
      <trkpt lat="47.788969" lon="11.652680">
        <ele>739.627488</ele>
        <time>2018-03-22T13:14:26.848Z</time>
      </trkpt>
      <trkpt lat="47.789149" lon="11.651726">
        <ele>739.640123</ele>
        <time>2018-03-22T13:15:33.493Z</time>
      </trkpt>
      <trkpt lat="47.789117" lon="11.651381">
        <ele>739.644564</ele>
        <time>2018-03-22T13:15:58.642Z</time>
      </trkpt>
      <trkpt lat="47.788943" lon="11.650777">
        <ele>739.729070</ele>
        <time>2018-03-22T13:16:45.564Z</time>
      </trkpt>
      <trkpt lat="47.788808" lon="11.649923">
        <ele>740.238128</ele>
        <time>2018-03-22T13:17:47.159Z</time>
      </trkpt>
      <trkpt lat="47.788785" lon="11.649293">
        <ele>740.604220</ele>
        <time>2018-03-22T13:18:31.074Z</time>
      </trkpt>
      <trkpt lat="47.788817" lon="11.648723">
        <ele>740.936111</ele>
        <time>2018-03-22T13:19:10.505Z</time>
      </trkpt>
      <trkpt lat="47.788899" lon="11.648357">
        <ele>741.159976</ele>
        <time>2018-03-22T13:19:36.490Z</time>
      </trkpt>
      <trkpt lat="47.789239" lon="11.647595">
        <ele>740.710864</ele>
        <time>2018-03-22T13:20:38.464Z</time>
      </trkpt>
      <trkpt lat="47.789256" lon="11.647578">
        <ele>740.692900</ele>
        <time>2018-03-22T13:20:40.864Z</time>
      </trkpt>
      <trkpt lat="47.790078" lon="11.646729">
        <ele>739.815335</ele>
        <time>2018-03-22T13:22:23.584Z</time>
      </trkpt>
      <trkpt lat="47.790570" lon="11.646462">
        <ele>739.191664</ele>
        <time>2018-03-22T13:23:17.903Z</time>
      </trkpt>
      <trkpt lat="47.790945" lon="11.645962">
        <ele>738.482268</ele>
        <time>2018-03-22T13:24:09.537Z</time>
      </trkpt>
      <trkpt lat="47.791676" lon="11.645509">
        <ele>737.366544</ele>
        <time>2018-03-22T13:25:31.095Z</time>
      </trkpt>
      <trkpt lat="47.792308" lon="11.645247">
        <ele>735.783442</ele>
        <time>2018-03-22T13:26:38.728Z</time>
      </trkpt>
      <trkpt lat="47.792597" lon="11.645015">
        <ele>734.852275</ele>
        <time>2018-03-22T13:27:13.032Z</time>
      </trkpt>
      <trkpt lat="47.792902" lon="11.644956">
        <ele>733.980053</ele>
        <time>2018-03-22T13:27:45.541Z</time>
      </trkpt>
      <trkpt lat="47.793702" lon="11.644294">
        <ele>731.080707</ele>
        <time>2018-03-22T13:29:24.882Z</time>
      </trkpt>
      <trkpt lat="47.795007" lon="11.643050">
        <ele>724.489641</ele>
        <time>2018-03-22T13:32:14.009Z</time>
      </trkpt>
      <trkpt lat="47.795358" lon="11.642788">
        <ele>723.580287</ele>
        <time>2018-03-22T13:32:56.470Z</time>
      </trkpt>
      <trkpt lat="47.796280" lon="11.642497">
        <ele>721.574932</ele>
        <time>2018-03-22T13:34:35.018Z</time>
      </trkpt>
      <trkpt lat="47.796690" lon="11.642277">
        <ele>720.647630</ele>
        <time>2018-03-22T13:35:19.090Z</time>
      </trkpt>
      <trkpt lat="47.798396" lon="11.640980">
        <ele>720.068506</ele>
        <time>2018-03-22T13:38:31.623Z</time>
      </trkpt>
      <trkpt lat="47.800141" lon="11.644316">
        <ele>720.090897</ele>
        <time>2018-03-22T13:43:16.451Z</time>
      </trkpt>
      <trkpt lat="47.800422" lon="11.644047">
        <ele>720.081160</ele>
        <time>2018-03-22T13:43:50.073Z</time>
      </trkpt>
      <trkpt lat="47.801918" lon="11.642501">
        <ele>719.924300</ele>
        <time>2018-03-22T13:46:52.763Z</time>
      </trkpt>
      <trkpt lat="47.802617" lon="11.642416">
        <ele>719.768684</ele>
        <time>2018-03-22T13:48:03.006Z</time>
      </trkpt>
      <trkpt lat="47.803848" lon="11.642174">
        <ele>719.346476</ele>
        <time>2018-03-22T13:50:07.940Z</time>
      </trkpt>
      <trkpt lat="47.804325" lon="11.642237">
        <ele>719.204070</ele>
        <time>2018-03-22T13:50:57.032Z</time>
      </trkpt>
      <trkpt lat="47.804558" lon="11.642321">
        <ele>719.140218</ele>
        <time>2018-03-22T13:51:21.231Z</time>
      </trkpt>
      <trkpt lat="47.804697" lon="11.642395">
        <ele>719.100900</ele>
        <time>2018-03-22T13:51:36.440Z</time>
      </trkpt>
      <trkpt lat="47.804992" lon="11.642434">
        <ele>719.022018</ele>
        <time>2018-03-22T13:52:06.385Z</time>
      </trkpt>
      <trkpt lat="47.805304" lon="11.642376">
        <ele>718.938271</ele>
        <time>2018-03-22T13:52:37.959Z</time>
      </trkpt>
      <trkpt lat="47.805593" lon="11.642449">
        <ele>718.860197</ele>
        <time>2018-03-22T13:53:07.490Z</time>
      </trkpt>
      <trkpt lat="47.805795" lon="11.642499">
        <ele>718.805656</ele>
        <time>2018-03-22T13:53:27.996Z</time>
      </trkpt>
      <trkpt lat="47.805965" lon="11.642781">
        <ele>719.087930</ele>
        <time>2018-03-22T13:53:54.411Z</time>
      </trkpt>
      <trkpt lat="47.806161" lon="11.643299">
        <ele>719.592251</ele>
        <time>2018-03-22T13:54:35.812Z</time>
      </trkpt>
      <trkpt lat="47.806312" lon="11.643567">
        <ele>719.888978</ele>
        <time>2018-03-22T13:55:00.635Z</time>
      </trkpt>
      <trkpt lat="47.805963" lon="11.643817">
        <ele>720.378105</ele>
        <time>2018-03-22T13:55:41.475Z</time>
      </trkpt>
      <trkpt lat="47.805331" lon="11.644059">
        <ele>721.160401</ele>
        <time>2018-03-22T13:56:50.890Z</time>
      </trkpt>
      <trkpt lat="47.805047" lon="11.644228">
        <ele>721.424023</ele>
        <time>2018-03-22T13:57:23.124Z</time>
      </trkpt>
      <trkpt lat="47.805011" lon="11.644338">
        <ele>721.494863</ele>
        <time>2018-03-22T13:57:31.799Z</time>
      </trkpt>
      <trkpt lat="47.804261" lon="11.645172">
        <ele>722.301736</ele>
        <time>2018-03-22T13:59:08.042Z</time>
      </trkpt>
      <trkpt lat="47.803613" lon="11.645980">
        <ele>722.557133</ele>
        <time>2018-03-22T14:00:33.217Z</time>
      </trkpt>
      <trkpt lat="47.802240" lon="11.647328">
        <ele>722.277421</ele>
        <time>2018-03-22T14:03:18.959Z</time>
      </trkpt>
      <trkpt lat="47.802146" lon="11.647420">
        <ele>722.241531</ele>
        <time>2018-03-22T14:03:30.288Z</time>
      </trkpt>
      <trkpt lat="47.802042" lon="11.647525">
        <ele>722.201441</ele>
        <time>2018-03-22T14:03:42.908Z</time>
      </trkpt>
      <trkpt lat="47.801912" lon="11.647659">
        <ele>722.150995</ele>
        <time>2018-03-22T14:03:58.888Z</time>
      </trkpt>
      <trkpt lat="47.800083" lon="11.649497">
        <ele>721.564838</ele>
        <time>2018-03-22T14:07:41.086Z</time>
      </trkpt>
      <trkpt lat="47.799327" lon="11.650422">
        <ele>721.478590</ele>
        <time>2018-03-22T14:09:19.369Z</time>
      </trkpt>
      <trkpt lat="47.798640" lon="11.651617">
        <ele>721.679338</ele>
        <time>2018-03-22T14:11:06.327Z</time>
      </trkpt>
      <trkpt lat="47.798615" lon="11.651660">
        <ele>721.686596</ele>
        <time>2018-03-22T14:11:10.183Z</time>
      </trkpt>
      <trkpt lat="47.798822" lon="11.652745">
        <ele>721.845586</ele>
        <time>2018-03-22T14:12:26.865Z</time>
      </trkpt>
      <trkpt lat="47.798792" lon="11.653224">
        <ele>721.920513</ele>
        <time>2018-03-22T14:12:59.240Z</time>
      </trkpt>
      <trkpt lat="47.798633" lon="11.654010">
        <ele>722.048361</ele>
        <time>2018-03-22T14:13:55.310Z</time>
      </trkpt>
      <trkpt lat="47.798765" lon="11.654492">
        <ele>722.129431</ele>
        <time>2018-03-22T14:14:30.733Z</time>
      </trkpt>
      <trkpt lat="47.798915" lon="11.654844">
        <ele>722.197623</ele>
        <time>2018-03-22T14:14:58.853Z</time>
      </trkpt>
      <trkpt lat="47.798966" lon="11.655368">
        <ele>722.298033</ele>
        <time>2018-03-22T14:15:34.561Z</time>
      </trkpt>
      <trkpt lat="47.798966" lon="11.655809">
        <ele>722.381665</ele>
        <time>2018-03-22T14:16:04.279Z</time>
      </trkpt>
      <trkpt lat="47.799051" lon="11.655840">
        <ele>722.406371</ele>
        <time>2018-03-22T14:16:13.078Z</time>
      </trkpt>
      <trkpt lat="47.799990" lon="11.658877">
        <ele>723.670756</ele>
        <time>2018-03-22T14:20:01.713Z</time>
      </trkpt>
      <trkpt lat="47.800054" lon="11.658941">
        <ele>723.731362</ele>
        <time>2018-03-22T14:20:09.729Z</time>
      </trkpt>
      <trkpt lat="47.800408" lon="11.658847">
        <ele>724.014029</ele>
        <time>2018-03-22T14:20:47.017Z</time>
      </trkpt>
      <trkpt lat="47.802312" lon="11.663364">
        <ele>729.756935</ele>
        <time>2018-03-22T14:27:06.844Z</time>
      </trkpt>
      <trkpt lat="47.801721" lon="11.664144">
        <ele>730.978147</ele>
        <time>2018-03-22T14:28:30.304Z</time>
      </trkpt>
      <trkpt lat="47.801275" lon="11.664614">
        <ele>731.812375</ele>
        <time>2018-03-22T14:29:27.812Z</time>
      </trkpt>
      <trkpt lat="47.800684" lon="11.665022">
        <ele>732.879497</ele>
        <time>2018-03-22T14:30:36.172Z</time>
      </trkpt>
      <trkpt lat="47.800060" lon="11.665224">
        <ele>734.588666</ele>
        <time>2018-03-22T14:31:44.321Z</time>
      </trkpt>
      <trkpt lat="47.800019" lon="11.665267">
        <ele>734.722899</ele>
        <time>2018-03-22T14:31:49.716Z</time>
      </trkpt>
      <trkpt lat="47.799879" lon="11.665416">
        <ele>735.183517</ele>
        <time>2018-03-22T14:32:08.387Z</time>
      </trkpt>
      <trkpt lat="47.799608" lon="11.665895">
        <ele>736.309457</ele>
        <time>2018-03-22T14:32:54.680Z</time>
      </trkpt>
      <trkpt lat="47.799104" lon="11.667087">
        <ele>739.702295</ele>
        <time>2018-03-22T14:34:42.607Z</time>
      </trkpt>
      <trkpt lat="47.798373" lon="11.668312">
        <ele>744.573116</ele>
        <time>2018-03-22T14:36:51.366Z</time>
      </trkpt>
      <trkpt lat="47.798116" lon="11.669096">
        <ele>746.603453</ele>
        <time>2018-03-22T14:37:59.026Z</time>
      </trkpt>
      <trkpt lat="47.797810" lon="11.669796">
        <ele>748.255326</ele>
        <time>2018-03-22T14:39:01.625Z</time>
      </trkpt>
      <trkpt lat="47.797893" lon="11.669891">
        <ele>748.563597</ele>
        <time>2018-03-22T14:39:12.983Z</time>
      </trkpt>
      <trkpt lat="47.798147" lon="11.670181">
        <ele>749.506106</ele>
        <time>2018-03-22T14:39:47.486Z</time>
      </trkpt>
      <trkpt lat="47.798806" lon="11.670569">
        <ele>750.850519</ele>
        <time>2018-03-22T14:41:02.867Z</time>
      </trkpt>
      <trkpt lat="47.799125" lon="11.670688">
        <ele>750.934383</ele>
        <time>2018-03-22T14:41:37.185Z</time>
      </trkpt>
      <trkpt lat="47.799970" lon="11.670648">
        <ele>751.149978</ele>
        <time>2018-03-22T14:43:02.193Z</time>
      </trkpt>
      <trkpt lat="47.800405" lon="11.670458">
        <ele>750.934032</ele>
        <time>2018-03-22T14:43:48.623Z</time>
      </trkpt>
      <trkpt lat="47.801080" lon="11.670466">
        <ele>748.973759</ele>
        <time>2018-03-22T14:44:59.048Z</time>
      </trkpt>
      <trkpt lat="47.801303" lon="11.670577">
        <ele>748.290925</ele>
        <time>2018-03-22T14:45:24.029Z</time>
      </trkpt>
      <trkpt lat="47.802083" lon="11.670593">
        <ele>746.025578</ele>
        <time>2018-03-22T14:46:48.460Z</time>
      </trkpt>
      <trkpt lat="47.802341" lon="11.670680">
        <ele>745.009856</ele>
        <time>2018-03-22T14:47:17.412Z</time>
      </trkpt>
      <trkpt lat="47.803221" lon="11.670687">
        <ele>741.620009</ele>
        <time>2018-03-22T14:48:54.131Z</time>
      </trkpt>
      <trkpt lat="47.804766" lon="11.670918">
        <ele>737.936169</ele>
        <time>2018-03-22T14:51:37.634Z</time>
      </trkpt>
      <trkpt lat="47.805079" lon="11.671023">
        <ele>737.523681</ele>
        <time>2018-03-22T14:52:10.116Z</time>
      </trkpt>
      <trkpt lat="47.805796" lon="11.670727">
        <ele>736.975530</ele>
        <time>2018-03-22T14:53:24.660Z</time>
      </trkpt>
      <trkpt lat="47.806301" lon="11.670701">
        <ele>737.603987</ele>
        <time>2018-03-22T14:54:17.004Z</time>
      </trkpt>
      <trkpt lat="47.806901" lon="11.670799">
        <ele>738.354699</ele>
        <time>2018-03-22T14:55:20.732Z</time>
      </trkpt>
      <trkpt lat="47.807993" lon="11.670224">
        <ele>739.908232</ele>
        <time>2018-03-22T14:57:24.279Z</time>
      </trkpt>
      <trkpt lat="47.808384" lon="11.669876">
        <ele>740.556459</ele>
        <time>2018-03-22T14:58:12.540Z</time>
      </trkpt>
      <trkpt lat="47.809014" lon="11.669368">
        <ele>741.570666</ele>
        <time>2018-03-22T14:59:27.267Z</time>
      </trkpt>
      <trkpt lat="47.809640" lon="11.669059">
        <ele>741.460090</ele>
        <time>2018-03-22T15:00:34.126Z</time>
      </trkpt>
      <trkpt lat="47.810218" lon="11.668505">
        <ele>741.344837</ele>
        <time>2018-03-22T15:01:43.431Z</time>
      </trkpt>
      <trkpt lat="47.810510" lon="11.668542">
        <ele>741.295701</ele>
        <time>2018-03-22T15:02:13.424Z</time>
      </trkpt>
      <trkpt lat="47.810809" lon="11.668673">
        <ele>741.257591</ele>
        <time>2018-03-22T15:02:45.334Z</time>
      </trkpt>
      <trkpt lat="47.811277" lon="11.668792">
        <ele>741.220952</ele>
        <time>2018-03-22T15:03:33.825Z</time>
      </trkpt>
      <trkpt lat="47.811525" lon="11.669121">
        <ele>741.195320</ele>
        <time>2018-03-22T15:04:07.419Z</time>
      </trkpt>
      <trkpt lat="47.811726" lon="11.669222">
        <ele>741.178950</ele>
        <time>2018-03-22T15:04:28.791Z</time>
      </trkpt>
      <trkpt lat="47.812076" lon="11.669250">
        <ele>741.151901</ele>
        <time>2018-03-22T15:05:04.583Z</time>
      </trkpt>
      <trkpt lat="47.812143" lon="11.669478">
        <ele>741.139003</ele>
        <time>2018-03-22T15:05:21.809Z</time>
      </trkpt>
      <trkpt lat="47.812114" lon="11.669859">
        <ele>741.425166</ele>
        <time>2018-03-22T15:05:48.622Z</time>
      </trkpt>
      <trkpt lat="47.812037" lon="11.670525">
        <ele>742.304594</ele>
        <time>2018-03-22T15:06:36.630Z</time>
      </trkpt>
      <trkpt lat="47.812061" lon="11.670711">
        <ele>742.551067</ele>
        <time>2018-03-22T15:06:50.384Z</time>
      </trkpt>
      <trkpt lat="47.812924" lon="11.670640">
        <ele>744.225891</ele>
        <time>2018-03-22T15:08:23.574Z</time>
      </trkpt>
      <trkpt lat="47.813383" lon="11.670687">
        <ele>745.310692</ele>
        <time>2018-03-22T15:09:14.181Z</time>
      </trkpt>
      <trkpt lat="47.814344" lon="11.670607">
        <ele>747.894922</ele>
        <time>2018-03-22T15:10:58.931Z</time>
      </trkpt>
      <trkpt lat="47.815034" lon="11.670530">
        <ele>749.956925</ele>
        <time>2018-03-22T15:12:14.590Z</time>
      </trkpt>
      <trkpt lat="47.816104" lon="11.670671">
        <ele>754.757380</ele>
        <time>2018-03-22T15:14:17.054Z</time>
      </trkpt>
      <trkpt lat="47.817629" lon="11.670592">
        <ele>762.748050</ele>
        <time>2018-03-22T15:17:21.106Z</time>
      </trkpt>
      <trkpt lat="47.818128" lon="11.670614">
        <ele>765.617495</ele>
        <time>2018-03-22T15:18:22.075Z</time>
      </trkpt>
      <trkpt lat="47.818840" lon="11.670881">
        <ele>768.344255</ele>
        <time>2018-03-22T15:19:48.868Z</time>
      </trkpt>
      <trkpt lat="47.819305" lon="11.670835">
        <ele>769.038495</ele>
        <time>2018-03-22T15:20:39.891Z</time>
      </trkpt>
      <trkpt lat="47.820116" lon="11.670554">
        <ele>770.278914</ele>
        <time>2018-03-22T15:22:03.509Z</time>
      </trkpt>
      <trkpt lat="47.820560" lon="11.670764">
        <ele>770.003971</ele>
        <time>2018-03-22T15:22:51.773Z</time>
      </trkpt>
      <trkpt lat="47.821172" lon="11.671158">
        <ele>768.956898</ele>
        <time>2018-03-22T15:24:02.235Z</time>
      </trkpt>
      <trkpt lat="47.821719" lon="11.671654">
        <ele>767.951165</ele>
        <time>2018-03-22T15:25:08.550Z</time>
      </trkpt>
      <trkpt lat="47.822090" lon="11.672145">
        <ele>768.039957</ele>
        <time>2018-03-22T15:25:58.725Z</time>
      </trkpt>
      <trkpt lat="47.822278" lon="11.672532">
        <ele>768.402582</ele>
        <time>2018-03-22T15:26:32.030Z</time>
      </trkpt>
      <trkpt lat="47.822472" lon="11.672908">
        <ele>768.762566</ele>
        <time>2018-03-22T15:27:06.758Z</time>
      </trkpt>
      <trkpt lat="47.822923" lon="11.673240">
        <ele>769.331374</ele>
        <time>2018-03-22T15:28:00.589Z</time>
      </trkpt>
      <trkpt lat="47.823170" lon="11.673299">
        <ele>769.614213</ele>
        <time>2018-03-22T15:28:27.238Z</time>
      </trkpt>
      <trkpt lat="47.823423" lon="11.673270">
        <ele>769.683457</ele>
        <time>2018-03-22T15:28:54.189Z</time>
      </trkpt>
      <trkpt lat="47.823765" lon="11.673107">
        <ele>769.626689</ele>
        <time>2018-03-22T15:29:31.677Z</time>
      </trkpt>
      <trkpt lat="47.824865" lon="11.673196">
        <ele>769.452532</ele>
        <time>2018-03-22T15:31:23.199Z</time>
      </trkpt>
      <trkpt lat="47.825281" lon="11.673199">
        <ele>768.673262</ele>
        <time>2018-03-22T15:32:06.114Z</time>
      </trkpt>
      <trkpt lat="47.825559" lon="11.673270">
        <ele>767.813760</ele>
        <time>2018-03-22T15:32:36.101Z</time>
      </trkpt>
      <trkpt lat="47.825746" lon="11.673419">
        <ele>767.167508</ele>
        <time>2018-03-22T15:32:58.812Z</time>
      </trkpt>
      <trkpt lat="47.826317" lon="11.673314">
        <ele>765.414312</ele>
        <time>2018-03-22T15:34:00.247Z</time>
      </trkpt>
      <trkpt lat="47.826874" lon="11.672946">
        <ele>763.373175</ele>
        <time>2018-03-22T15:35:05.858Z</time>
      </trkpt>
      <trkpt lat="47.827164" lon="11.672605">
        <ele>761.711530</ele>
        <time>2018-03-22T15:35:46.283Z</time>
      </trkpt>
      <trkpt lat="47.827303" lon="11.672539">
        <ele>761.055411</ele>
        <time>2018-03-22T15:36:02.269Z</time>
      </trkpt>
      <trkpt lat="47.827491" lon="11.672569">
        <ele>760.205079</ele>
        <time>2018-03-22T15:36:23.578Z</time>
      </trkpt>
      <trkpt lat="47.828732" lon="11.673100">
        <ele>755.400974</ele>
        <time>2018-03-22T15:38:44.805Z</time>
      </trkpt>
      <trkpt lat="47.828921" lon="11.673095">
        <ele>755.135689</ele>
        <time>2018-03-22T15:39:04.955Z</time>
      </trkpt>
      <trkpt lat="47.829172" lon="11.672913">
        <ele>754.743915</ele>
        <time>2018-03-22T15:39:34.166Z</time>
      </trkpt>
      <trkpt lat="47.829266" lon="11.673214">
        <ele>754.431142</ele>
        <time>2018-03-22T15:39:56.752Z</time>
      </trkpt>
      <trkpt lat="47.829221" lon="11.674109">
        <ele>753.585543</ele>
        <time>2018-03-22T15:40:57.231Z</time>
      </trkpt>
      <trkpt lat="47.829249" lon="11.674553">
        <ele>753.490940</ele>
        <time>2018-03-22T15:41:28.407Z</time>
      </trkpt>
      <trkpt lat="47.829161" lon="11.675687">
        <ele>754.521873</ele>
        <time>2018-03-22T15:42:51.620Z</time>
      </trkpt>
      <trkpt lat="47.829211" lon="11.676524">
        <ele>755.280753</ele>
        <time>2018-03-22T15:43:51.543Z</time>
      </trkpt>
      <trkpt lat="47.829623" lon="11.678422">
        <ele>754.546981</ele>
        <time>2018-03-22T15:46:05.599Z</time>
      </trkpt>
      <trkpt lat="47.829785" lon="11.680270">
        <ele>752.072007</ele>
        <time>2018-03-22T15:48:18.044Z</time>
      </trkpt>
      <trkpt lat="47.829729" lon="11.680865">
        <ele>750.712058</ele>
        <time>2018-03-22T15:49:01.661Z</time>
      </trkpt>
      <trkpt lat="47.829806" lon="11.681668">
        <ele>748.876027</ele>
        <time>2018-03-22T15:50:00.411Z</time>
      </trkpt>
      <trkpt lat="47.829735" lon="11.682389">
        <ele>747.345268</ele>
        <time>2018-03-22T15:50:52.849Z</time>
      </trkpt>
      <trkpt lat="47.829764" lon="11.683975">
        <ele>745.325210</ele>
        <time>2018-03-22T15:52:44.789Z</time>
      </trkpt>
      <trkpt lat="47.830240" lon="11.687565">
        <ele>742.898733</ele>
        <time>2018-03-22T15:56:53.505Z</time>
      </trkpt>
      <trkpt lat="47.830366" lon="11.690300">
        <ele>740.043716</ele>
        <time>2018-03-22T16:00:03.002Z</time>
      </trkpt>
      <trkpt lat="47.830423" lon="11.690739">
        <ele>739.031885</ele>
        <time>2018-03-22T16:00:34.854Z</time>
      </trkpt>
      <trkpt lat="47.830468" lon="11.691329">
        <ele>737.688176</ele>
        <time>2018-03-22T16:01:17.562Z</time>
      </trkpt>
      <trkpt lat="47.830416" lon="11.692102">
        <ele>735.930182</ele>
        <time>2018-03-22T16:02:13.748Z</time>
      </trkpt>
      <trkpt lat="47.830300" lon="11.692691">
        <ele>734.541152</ele>
        <time>2018-03-22T16:02:58.542Z</time>
      </trkpt>
      <trkpt lat="47.829683" lon="11.695845">
        <ele>727.127767</ele>
        <time>2018-03-22T16:06:56.100Z</time>
      </trkpt>
      <trkpt lat="47.829576" lon="11.697710">
        <ele>724.998949</ele>
        <time>2018-03-22T16:09:05.260Z</time>
      </trkpt>
      <trkpt lat="47.829457" lon="11.699160">
        <ele>724.073135</ele>
        <time>2018-03-22T16:10:44.601Z</time>
      </trkpt>
      <trkpt lat="47.829626" lon="11.699668">
        <ele>723.814000</ele>
        <time>2018-03-22T16:11:23.080Z</time>
      </trkpt>
      <trkpt lat="47.829897" lon="11.700341">
        <ele>723.455305</ele>
        <time>2018-03-22T16:12:16.572Z</time>
      </trkpt>
      <trkpt lat="47.829924" lon="11.700679">
        <ele>723.266730</ele>
        <time>2018-03-22T16:12:39.839Z</time>
      </trkpt>
      <trkpt lat="47.829885" lon="11.701508">
        <ele>722.595930</ele>
        <time>2018-03-22T16:13:36.883Z</time>
      </trkpt>
      <trkpt lat="47.830145" lon="11.703091">
        <ele>721.280469</ele>
        <time>2018-03-22T16:15:29.441Z</time>
      </trkpt>
      <trkpt lat="47.830206" lon="11.704255">
        <ele>720.383361</ele>
        <time>2018-03-22T16:16:50.077Z</time>
      </trkpt>
      <trkpt lat="47.830402" lon="11.705146">
        <ele>719.667258</ele>
        <time>2018-03-22T16:17:54.575Z</time>
      </trkpt>
      <trkpt lat="47.830810" lon="11.706860">
        <ele>718.725442</ele>
        <time>2018-03-22T16:19:58.759Z</time>
      </trkpt>
      <trkpt lat="47.831054" lon="11.707615">
        <ele>718.419906</ele>
        <time>2018-03-22T16:20:55.439Z</time>
      </trkpt>
      <trkpt lat="47.831289" lon="11.708760">
        <ele>718.156977</ele>
        <time>2018-03-22T16:22:16.330Z</time>
      </trkpt>
      <trkpt lat="47.831369" lon="11.708881">
        <ele>718.156977</ele>
        <time>2018-03-22T16:22:27.822Z</time>
      </trkpt>
      <trkpt lat="47.832077" lon="11.708954">
        <ele>718.156977</ele>
        <time>2018-03-22T16:23:40.168Z</time>
      </trkpt>
      <trkpt lat="47.832239" lon="11.709024">
        <ele>718.156977</ele>
        <time>2018-03-22T16:23:57.259Z</time>
      </trkpt>
      <trkpt lat="47.832164" lon="11.709511">
        <ele>718.156977</ele>
        <time>2018-03-22T16:24:31.455Z</time>
      </trkpt>
      <trkpt lat="47.832157" lon="11.709564">
        <ele>718.156977</ele>
        <time>2018-03-22T16:24:35.182Z</time>
      </trkpt>
      <trkpt lat="47.832131" lon="11.709715">
        <ele>718.156977</ele>
        <time>2018-03-22T16:24:45.847Z</time>
      </trkpt>
      <trkpt lat="47.832127" lon="11.709741">
        <ele>718.156977</ele>
        <time>2018-03-22T16:24:47.738Z</time>
      </trkpt>
      <trkpt lat="47.831985" lon="11.710578">
        <ele>718.156977</ele>
        <time>2018-03-22T16:25:46.650Z</time>
      </trkpt>
      <trkpt lat="47.831984" lon="11.710604">
        <ele>718.156977</ele>
        <time>2018-03-22T16:25:48.498Z</time>
      </trkpt>
    </trkseg>
  </trk>
</gpx>